Lingle, Wyoming
Current Conditions -  °F | °C
As of 4:55 AM on Sunday 21 Dec 2014 (Local Time) from KGUR Reporting Station
Clear Clear  
Wind Chill: 42°   Ceiling: Unl
Heat Index: 48°   Visibility: 10mi
Dew Point: 30°   Wind: 16mph
Humidity: 49%   Direction: 260°W
Pressure: 29.67"   Gusts: 23mph
Location:  42.14°N, 104.35°W
Report Text: KGUR 211155Z AUTO 26014G20KT 10SM CLR 09/M01 A2967 RMK AO2 T00911011 10093 20017
Loading
Personal Weather Stations






























Interactive Weather Map New forecast layout! Learn more

10-Day Weather Forecast

Advertisements
Track Severe Weather on mobile